sensor_id;sensor_type;location;lat;lon;timestamp;temperature;humidity
71142;DHT22;58808;59.366;17.970;2023-09-19T00:00:38;16.10;99.90
71142;DHT22;58808;59.366;17.970;2023-09-19T00:03:06;16.10;99.90
71142;DHT22;58808;59.366;17.970;2023-09-19T00:05:34;16.20;99.90
71142;DHT22;58808;59.366;17.970;2023-09-19T00:08:01;16.20;99.90
71142;DHT22;58808;59.366;17.970;2023-09-19T00:10:31;16.20;99.90
71142;DHT22;58808;59.366;17.970;2023-09-19T00:13:00;16.20;99.90
71142;DHT22;58808;59.366;17.970;2023-09-19T00:15:35;16.20;99.90
71142;DHT22;58808;59.366;17.970;2023-09-19T00:18:01;16.20;99.90
71142;DHT22;58808;59.366;17.970;2023-09-19T00:20:27;16.20;99.90
71142;DHT22;58808;59.366;17.970;2023-09-19T00:22:55;16.20;99.90
71142;DHT22;58808;59.366;17.970;2023-09-19T00:25:21;16.20;99.90
71142;DHT22;58808;59.366;17.970;2023-09-19T00:27:47;16.20;99.90
71142;DHT22;58808;59.366;17.970;2023-09-19T00:30:15;16.20;99.90
71142;DHT22;58808;59.366;17.970;2023-09-19T00:32:45;16.20;99.90
71142;DHT22;58808;59.366;17.970;2023-09-19T00:35:16;16.30;99.90
71142;DHT22;58808;59.366;17.970;2023-09-19T00:37:42;16.30;99.90
71142;DHT22;58808;59.366;17.970;2023-09-19T00:40:08;16.30;99.90
71142;DHT22;58808;59.366;17.970;2023-09-19T00:42:40;16.40;99.90
71142;DHT22;58808;59.366;17.970;2023-09-19T00:45:09;16.40;99.90
71142;DHT22;58808;59.366;17.970;2023-09-19T00:47:44;16.40;99.90
71142;DHT22;58808;59.366;17.970;2023-09-19T00:50:11;16.40;99.90
71142;DHT22;58808;59.366;17.970;2023-09-19T00:52:40;16.40;99.90
71142;DHT22;58808;59.366;17.970;2023-09-19T00:55:10;16.50;99.90
71142;DHT22;58808;59.366;17.970;2023-09-19T00:57:39;16.60;99.90
71142;DHT22;58808;59.366;17.970;2023-09-19T01:00:09;16.60;99.90
71142;DHT22;58808;59.366;17.970;2023-09-19T01:02:42;16.60;99.90
71142;DHT22;58808;59.366;17.970;2023-09-19T01:05:11;16.70;99.90
71142;DHT22;58808;59.366;17.970;2023-09-19T01:07:38;16.70;99.90
71142;DHT22;58808;59.366;17.970;2023-09-19T01:10:08;16.80;99.90
71142;DHT22;58808;59.366;17.970;2023-09-19T01:15:24;16.80;99.90
71142;DHT22;58808;59.366;17.970;2023-09-19T01:18:00;16.80;99.90
71142;DHT22;58808;59.366;17.970;2023-09-19T01:23:35;16.80;99.90
71142;DHT22;58808;59.366;17.970;2023-09-19T01:29:33;16.80;99.90
71142;DHT22;58808;59.366;17.970;2023-09-19T01:31:40;16.90;99.90
71142;DHT22;58808;59.366;17.970;2023-09-19T01:34:08;16.90;99.90
71142;DHT22;58808;59.366;17.970;2023-09-19T01:36:37;16.90;99.90
71142;DHT22;58808;59.366;17.970;2023-09-19T01:39:11;16.90;99.90
71142;DHT22;58808;59.366;17.970;2023-09-19T01:41:56;16.90;99.90
71142;DHT22;58808;59.366;17.970;2023-09-19T01:44:59;17.00;99.90
71142;DHT22;58808;59.366;17.970;2023-09-19T01:47:32;17.00;99.90
71142;DHT22;58808;59.366;17.970;2023-09-19T01:52:57;17.10;99.90
71142;DHT22;58808;59.366;17.970;2023-09-19T01:55:28;17.00;99.90
71142;DHT22;58808;59.366;17.970;2023-09-19T01:58:01;17.00;99.90
71142;DHT22;58808;59.366;17.970;2023-09-19T02:00:32;17.00;99.90
71142;DHT22;58808;59.366;17.970;2023-09-19T02:02:59;17.00;99.90
71142;DHT22;58808;59.366;17.970;2023-09-19T02:05:26;17.00;99.90
71142;DHT22;58808;59.366;17.970;2023-09-19T02:07:53;17.00;99.90
71142;DHT22;58808;59.366;17.970;2023-09-19T02:10:19;17.00;99.90
71142;DHT22;58808;59.366;17.970;2023-09-19T02:12:45;17.00;99.90
71142;DHT22;58808;59.366;17.970;2023-09-19T02:15:13;17.00;99.90
71142;DHT22;58808;59.366;17.970;2023-09-19T02:17:44;17.00;99.90
71142;DHT22;58808;59.366;17.970;2023-09-19T02:20:12;17.00;99.90
71142;DHT22;58808;59.366;17.970;2023-09-19T02:22:41;17.00;99.90
71142;DHT22;58808;59.366;17.970;2023-09-19T02:25:07;17.00;99.90
71142;DHT22;58808;59.366;17.970;2023-09-19T02:27:33;17.00;99.90
71142;DHT22;58808;59.366;17.970;2023-09-19T02:29:59;17.00;99.90
71142;DHT22;58808;59.366;17.970;2023-09-19T02:32:27;17.00;99.90
71142;DHT22;58808;59.366;17.970;2023-09-19T02:34:55;17.00;99.90
71142;DHT22;58808;59.366;17.970;2023-09-19T02:37:21;17.00;99.90
71142;DHT22;58808;59.366;17.970;2023-09-19T02:39:47;17.10;99.90
71142;DHT22;58808;59.366;17.970;2023-09-19T02:42:12;17.10;99.90
71142;DHT22;58808;59.366;17.970;2023-09-19T02:44:38;17.00;99.90
71142;DHT22;58808;59.366;17.970;2023-09-19T02:47:05;17.10;99.90
71142;DHT22;58808;59.366;17.970;2023-09-19T02:49:31;17.10;99.90
71142;DHT22;58808;59.366;17.970;2023-09-19T02:51:57;17.10;99.90
71142;DHT22;58808;59.366;17.970;2023-09-19T02:54:24;17.10;99.90
71142;DHT22;58808;59.366;17.970;2023-09-19T02:56:50;17.10;99.90
71142;DHT22;58808;59.366;17.970;2023-09-19T02:59:16;17.10;99.90
71142;DHT22;58808;59.366;17.970;2023-09-19T03:01:45;17.20;99.90
71142;DHT22;58808;59.366;17.970;2023-09-19T03:04:14;17.10;99.90
71142;DHT22;58808;59.366;17.970;2023-09-19T03:06:42;17.10;99.90
71142;DHT22;58808;59.366;17.970;2023-09-19T03:09:08;17.10;99.90
71142;DHT22;58808;59.366;17.970;2023-09-19T03:11:36;17.10;99.90
71142;DHT22;58808;59.366;17.970;2023-09-19T03:14:03;17.10;99.90
71142;DHT22;58808;59.366;17.970;2023-09-19T03:16:29;17.10;99.90
71142;DHT22;58808;59.366;17.970;2023-09-19T03:18:55;17.10;99.90
71142;DHT22;58808;59.366;17.970;2023-09-19T03:21:21;17.10;99.90
71142;DHT22;58808;59.366;17.970;2023-09-19T03:23:47;17.10;99.90
71142;DHT22;58808;59.366;17.970;2023-09-19T03:26:13;17.10;99.90
71142;DHT22;58808;59.366;17.970;2023-09-19T03:28:42;17.10;99.90
71142;DHT22;58808;59.366;17.970;2023-09-19T03:31:09;17.10;99.90
71142;DHT22;58808;59.366;17.970;2023-09-19T03:33:34;17.10;99.90
71142;DHT22;58808;59.366;17.970;2023-09-19T03:36:02;17.10;99.90
71142;DHT22;58808;59.366;17.970;2023-09-19T03:38:30;17.10;99.90
71142;DHT22;58808;59.366;17.970;2023-09-19T03:40:56;17.00;99.90
71142;DHT22;58808;59.366;17.970;2023-09-19T03:43:22;17.00;99.90
71142;DHT22;58808;59.366;17.970;2023-09-19T03:45:48;17.00;99.90
71142;DHT22;58808;59.366;17.970;2023-09-19T03:48:14;17.00;99.90
71142;DHT22;58808;59.366;17.970;2023-09-19T03:50:40;17.00;99.90
71142;DHT22;58808;59.366;17.970;2023-09-19T03:53:06;17.00;99.90
71142;DHT22;58808;59.366;17.970;2023-09-19T03:55:34;17.00;99.90
71142;DHT22;58808;59.366;17.970;2023-09-19T03:58:01;17.00;99.90
71142;DHT22;58808;59.366;17.970;2023-09-19T04:00:27;17.00;99.90
71142;DHT22;58808;59.366;17.970;2023-09-19T04:02:55;17.10;99.90
71142;DHT22;58808;59.366;17.970;2023-09-19T04:05:22;17.10;99.90
71142;DHT22;58808;59.366;17.970;2023-09-19T04:07:48;17.10;99.90
71142;DHT22;58808;59.366;17.970;2023-09-19T04:10:15;17.10;99.90
71142;DHT22;58808;59.366;17.970;2023-09-19T04:12:53;17.10;99.90
71142;DHT22;58808;59.366;17.970;2023-09-19T04:15:19;17.10;99.90
71142;DHT22;58808;59.366;17.970;2023-09-19T04:17:44;17.10;99.90
71142;DHT22;58808;59.366;17.970;2023-09-19T04:20:10;17.20;99.90
71142;DHT22;58808;59.366;17.970;2023-09-19T04:22:38;17.10;99.90
71142;DHT22;58808;59.366;17.970;2023-09-19T04:25:05;17.10;99.90
71142;DHT22;58808;59.366;17.970;2023-09-19T04:27:32;17.10;99.90
71142;DHT22;58808;59.366;17.970;2023-09-19T04:29:58;17.10;99.90
71142;DHT22;58808;59.366;17.970;2023-09-19T04:32:28;17.10;99.90
71142;DHT22;58808;59.366;17.970;2023-09-19T04:34:53;17.10;99.90
71142;DHT22;58808;59.366;17.970;2023-09-19T04:37:19;17.10;99.90
71142;DHT22;58808;59.366;17.970;2023-09-19T04:39:46;17.10;99.90
71142;DHT22;58808;59.366;17.970;2023-09-19T04:42:13;17.10;99.90
71142;DHT22;58808;59.366;17.970;2023-09-19T04:44:40;17.10;99.90
71142;DHT22;58808;59.366;17.970;2023-09-19T04:47:05;17.10;99.90
71142;DHT22;58808;59.366;17.970;2023-09-19T04:49:31;17.10;99.90
71142;DHT22;58808;59.366;17.970;2023-09-19T04:51:57;17.10;99.90
71142;DHT22;58808;59.366;17.970;2023-09-19T04:54:23;17.10;99.90
71142;DHT22;58808;59.366;17.970;2023-09-19T04:56:48;17.10;99.90
71142;DHT22;58808;59.366;17.970;2023-09-19T04:59:14;17.20;99.90
71142;DHT22;58808;59.366;17.970;2023-09-19T05:01:41;17.20;99.90
71142;DHT22;58808;59.366;17.970;2023-09-19T05:04:06;17.20;99.90
71142;DHT22;58808;59.366;17.970;2023-09-19T05:06:32;17.20;99.90
71142;DHT22;58808;59.366;17.970;2023-09-19T05:08:59;17.20;99.90
71142;DHT22;58808;59.366;17.970;2023-09-19T05:11:25;17.20;99.90
71142;DHT22;58808;59.366;17.970;2023-09-19T05:13:51;17.20;99.90
71142;DHT22;58808;59.366;17.970;2023-09-19T05:16:18;17.20;99.90
71142;DHT22;58808;59.366;17.970;2023-09-19T05:18:44;17.20;99.90
71142;DHT22;58808;59.366;17.970;2023-09-19T05:21:10;17.20;99.90
71142;DHT22;58808;59.366;17.970;2023-09-19T05:23:36;17.20;99.90
71142;DHT22;58808;59.366;17.970;2023-09-19T05:26:02;17.20;99.90
71142;DHT22;58808;59.366;17.970;2023-09-19T05:28:29;17.20;99.90
71142;DHT22;58808;59.366;17.970;2023-09-19T05:30:55;17.20;99.90
71142;DHT22;58808;59.366;17.970;2023-09-19T05:33:21;17.30;99.90
71142;DHT22;58808;59.366;17.970;2023-09-19T05:35:49;17.30;99.90
71142;DHT22;58808;59.366;17.970;2023-09-19T05:38:15;17.30;99.90
71142;DHT22;58808;59.366;17.970;2023-09-19T05:40:45;17.20;99.90
71142;DHT22;58808;59.366;17.970;2023-09-19T05:43:11;17.20;99.90
71142;DHT22;58808;59.366;17.970;2023-09-19T05:45:37;17.20;99.90
71142;DHT22;58808;59.366;17.970;2023-09-19T05:48:13;17.30;99.90
71142;DHT22;58808;59.366;17.970;2023-09-19T05:50:41;17.30;99.90
71142;DHT22;58808;59.366;17.970;2023-09-19T05:53:07;17.30;99.90
71142;DHT22;58808;59.366;17.970;2023-09-19T05:55:33;17.30;99.90
71142;DHT22;58808;59.366;17.970;2023-09-19T05:57:59;17.30;99.90
71142;DHT22;58808;59.366;17.970;2023-09-19T06:00:25;17.40;99.90
71142;DHT22;58808;59.366;17.970;2023-09-19T06:02:53;17.40;99.90
71142;DHT22;58808;59.366;17.970;2023-09-19T06:05:20;17.40;99.90
71142;DHT22;58808;59.366;17.970;2023-09-19T06:07:46;17.40;99.90
71142;DHT22;58808;59.366;17.970;2023-09-19T06:10:12;17.40;99.90
71142;DHT22;58808;59.366;17.970;2023-09-19T06:12:44;17.40;99.90
71142;DHT22;58808;59.366;17.970;2023-09-19T06:15:11;17.40;99.90
71142;DHT22;58808;59.366;17.970;2023-09-19T06:17:49;17.40;99.90
71142;DHT22;58808;59.366;17.970;2023-09-19T06:20:16;17.50;99.90
71142;DHT22;58808;59.366;17.970;2023-09-19T06:22:44;17.50;99.90
71142;DHT22;58808;59.366;17.970;2023-09-19T06:25:11;17.50;99.90
71142;DHT22;58808;59.366;17.970;2023-09-19T06:27:38;17.50;99.90
71142;DHT22;58808;59.366;17.970;2023-09-19T06:30:08;17.50;99.90
71142;DHT22;58808;59.366;17.970;2023-09-19T06:32:34;17.50;99.90
71142;DHT22;58808;59.366;17.970;2023-09-19T06:35:00;17.50;99.90
71142;DHT22;58808;59.366;17.970;2023-09-19T06:37:29;17.50;99.90
71142;DHT22;58808;59.366;17.970;2023-09-19T06:39:55;17.50;99.90
71142;DHT22;58808;59.366;17.970;2023-09-19T06:42:22;17.50;99.90
71142;DHT22;58808;59.366;17.970;2023-09-19T06:44:49;17.50;99.90
71142;DHT22;58808;59.366;17.970;2023-09-19T06:47:14;17.50;99.90
71142;DHT22;58808;59.366;17.970;2023-09-19T06:49:41;17.50;99.90
71142;DHT22;58808;59.366;17.970;2023-09-19T06:52:09;17.50;99.90
71142;DHT22;58808;59.366;17.970;2023-09-19T06:54:35;17.50;99.90
71142;DHT22;58808;59.366;17.970;2023-09-19T06:57:01;17.50;99.90
71142;DHT22;58808;59.366;17.970;2023-09-19T06:59:27;17.50;99.90
71142;DHT22;58808;59.366;17.970;2023-09-19T07:01:53;17.50;99.90
71142;DHT22;58808;59.366;17.970;2023-09-19T07:04:18;17.50;99.90
71142;DHT22;58808;59.366;17.970;2023-09-19T07:06:53;17.50;99.90
71142;DHT22;58808;59.366;17.970;2023-09-19T07:09:19;17.50;99.90
71142;DHT22;58808;59.366;17.970;2023-09-19T07:11:45;17.50;99.90
71142;DHT22;58808;59.366;17.970;2023-09-19T07:14:13;17.50;99.90
71142;DHT22;58808;59.366;17.970;2023-09-19T07:16:39;17.50;99.90
71142;DHT22;58808;59.366;17.970;2023-09-19T07:19:05;17.50;99.90
71142;DHT22;58808;59.366;17.970;2023-09-19T07:21:31;17.50;99.90
71142;DHT22;58808;59.366;17.970;2023-09-19T07:24:01;17.50;99.90
71142;DHT22;58808;59.366;17.970;2023-09-19T07:26:28;17.50;99.90
71142;DHT22;58808;59.366;17.970;2023-09-19T07:28:54;17.50;99.90
71142;DHT22;58808;59.366;17.970;2023-09-19T07:31:20;17.50;99.90
71142;DHT22;58808;59.366;17.970;2023-09-19T07:33:48;17.50;99.90
71142;DHT22;58808;59.366;17.970;2023-09-19T07:36:14;17.50;99.90
71142;DHT22;58808;59.366;17.970;2023-09-19T07:38:40;17.50;99.90
71142;DHT22;58808;59.366;17.970;2023-09-19T07:41:07;17.50;99.90
71142;DHT22;58808;59.366;17.970;2023-09-19T07:43:37;17.60;99.90
71142;DHT22;58808;59.366;17.970;2023-09-19T07:46:08;17.60;99.90
71142;DHT22;58808;59.366;17.970;2023-09-19T07:48:37;17.60;99.90
71142;DHT22;58808;59.366;17.970;2023-09-19T07:51:07;17.60;99.90
71142;DHT22;58808;59.366;17.970;2023-09-19T07:53:34;17.60;99.90
71142;DHT22;58808;59.366;17.970;2023-09-19T07:56:07;17.60;99.90
71142;DHT22;58808;59.366;17.970;2023-09-19T07:58:34;17.60;99.90
71142;DHT22;58808;59.366;17.970;2023-09-19T08:01:04;17.60;99.90
71142;DHT22;58808;59.366;17.970;2023-09-19T08:03:30;17.70;99.90
71142;DHT22;58808;59.366;17.970;2023-09-19T08:05:56;17.70;99.90
71142;DHT22;58808;59.366;17.970;2023-09-19T08:08:23;17.70;99.90
71142;DHT22;58808;59.366;17.970;2023-09-19T08:10:58;17.70;99.90
71142;DHT22;58808;59.366;17.970;2023-09-19T08:13:24;17.80;99.90
71142;DHT22;58808;59.366;17.970;2023-09-19T08:15:50;17.80;99.90
71142;DHT22;58808;59.366;17.970;2023-09-19T08:18:19;17.80;99.90
71142;DHT22;58808;59.366;17.970;2023-09-19T08:20:51;17.80;99.90
71142;DHT22;58808;59.366;17.970;2023-09-19T08:23:18;17.90;99.90
71142;DHT22;58808;59.366;17.970;2023-09-19T08:25:46;17.90;99.90
71142;DHT22;58808;59.366;17.970;2023-09-19T08:28:11;17.90;99.90
71142;DHT22;58808;59.366;17.970;2023-09-19T08:30:39;17.90;99.90
71142;DHT22;58808;59.366;17.970;2023-09-19T08:33:06;18.00;99.90
71142;DHT22;58808;59.366;17.970;2023-09-19T08:35:33;18.00;99.90
71142;DHT22;58808;59.366;17.970;2023-09-19T08:37:59;18.00;99.90
71142;DHT22;58808;59.366;17.970;2023-09-19T08:40:30;18.00;99.90
71142;DHT22;58808;59.366;17.970;2023-09-19T08:42:59;18.00;99.90
71142;DHT22;58808;59.366;17.970;2023-09-19T08:45:27;18.00;99.90
71142;DHT22;58808;59.366;17.970;2023-09-19T08:50:51;18.10;99.90
71142;DHT22;58808;59.366;17.970;2023-09-19T08:54:11;18.20;99.90
71142;DHT22;58808;59.366;17.970;2023-09-19T08:56:12;18.20;99.90
71142;DHT22;58808;59.366;17.970;2023-09-19T08:59:05;18.30;99.90
71142;DHT22;58808;59.366;17.970;2023-09-19T09:01:34;18.30;99.90
71142;DHT22;58808;59.366;17.970;2023-09-19T09:04:02;18.30;99.90
71142;DHT22;58808;59.366;17.970;2023-09-19T09:06:29;18.40;99.90
71142;DHT22;58808;59.366;17.970;2023-09-19T09:08:55;18.40;99.90
71142;DHT22;58808;59.366;17.970;2023-09-19T09:11:21;18.40;99.90
71142;DHT22;58808;59.366;17.970;2023-09-19T09:13:50;18.40;99.90
71142;DHT22;58808;59.366;17.970;2023-09-19T09:16:16;18.50;99.90
71142;DHT22;58808;59.366;17.970;2023-09-19T09:18:45;18.50;99.90
71142;DHT22;58808;59.366;17.970;2023-09-19T09:21:12;18.50;99.90
71142;DHT22;58808;59.366;17.970;2023-09-19T09:23:39;18.60;99.90
71142;DHT22;58808;59.366;17.970;2023-09-19T09:26:04;18.60;99.90
71142;DHT22;58808;59.366;17.970;2023-09-19T09:28:33;18.60;99.90
71142;DHT22;58808;59.366;17.970;2023-09-19T09:31:01;18.60;99.90
71142;DHT22;58808;59.366;17.970;2023-09-19T09:33:38;18.60;99.90
71142;DHT22;58808;59.366;17.970;2023-09-19T09:36:05;18.60;99.90
71142;DHT22;58808;59.366;17.970;2023-09-19T09:38:47;18.60;99.90
71142;DHT22;58808;59.366;17.970;2023-09-19T09:41:16;18.80;99.90
71142;DHT22;58808;59.366;17.970;2023-09-19T09:43:53;18.90;99.90
71142;DHT22;58808;59.366;17.970;2023-09-19T09:46:20;18.90;99.90
71142;DHT22;58808;59.366;17.970;2023-09-19T09:48:58;19.00;99.90
71142;DHT22;58808;59.366;17.970;2023-09-19T09:51:49;19.00;99.90
71142;DHT22;58808;59.366;17.970;2023-09-19T09:54:24;19.00;99.90
71142;DHT22;58808;59.366;17.970;2023-09-19T10:02:09;18.80;99.90
71142;DHT22;58808;59.366;17.970;2023-09-19T10:04:39;18.80;99.90
71142;DHT22;58808;59.366;17.970;2023-09-19T10:07:30;18.80;99.90
71142;DHT22;58808;59.366;17.970;2023-09-19T10:10:15;18.80;99.90
71142;DHT22;58808;59.366;17.970;2023-09-19T10:12:55;18.80;99.90
71142;DHT22;58808;59.366;17.970;2023-09-19T10:15:32;18.90;99.90
71142;DHT22;58808;59.366;17.970;2023-09-19T10:18:00;19.10;99.90
71142;DHT22;58808;59.366;17.970;2023-09-19T10:20:28;19.30;99.90
71142;DHT22;58808;59.366;17.970;2023-09-19T10:23:10;19.50;99.90
71142;DHT22;58808;59.366;17.970;2023-09-19T10:25:40;19.70;99.90
71142;DHT22;58808;59.366;17.970;2023-09-19T10:28:08;19.60;99.90
71142;DHT22;58808;59.366;17.970;2023-09-19T10:33:14;19.50;99.90
71142;DHT22;58808;59.366;17.970;2023-09-19T10:35:43;19.50;99.90
71142;DHT22;58808;59.366;17.970;2023-09-19T10:38:10;19.40;99.90
71142;DHT22;58808;59.366;17.970;2023-09-19T10:40:37;19.40;99.90
71142;DHT22;58808;59.366;17.970;2023-09-19T10:43:06;19.50;99.90
71142;DHT22;58808;59.366;17.970;2023-09-19T10:45:34;19.60;99.90
71142;DHT22;58808;59.366;17.970;2023-09-19T10:48:01;19.70;99.90
71142;DHT22;58808;59.366;17.970;2023-09-19T10:53:27;19.80;99.90
71142;DHT22;58808;59.366;17.970;2023-09-19T10:55:57;19.80;99.90
71142;DHT22;58808;59.366;17.970;2023-09-19T10:58:31;19.70;99.90
71142;DHT22;58808;59.366;17.970;2023-09-19T11:01:04;19.60;99.90
71142;DHT22;58808;59.366;17.970;2023-09-19T11:03:35;19.50;99.90
71142;DHT22;58808;59.366;17.970;2023-09-19T11:09:12;19.50;99.90
71142;DHT22;58808;59.366;17.970;2023-09-19T11:30:50;20.00;99.90
71142;DHT22;58808;59.366;17.970;2023-09-19T11:33:25;20.00;99.90
71142;DHT22;58808;59.366;17.970;2023-09-19T11:36:13;19.80;99.90
71142;DHT22;58808;59.366;17.970;2023-09-19T11:49:19;20.50;99.90
71142;DHT22;58808;59.366;17.970;2023-09-19T11:51:52;20.70;99.90
71142;DHT22;58808;59.366;17.970;2023-09-19T11:54:18;20.90;99.90
71142;DHT22;58808;59.366;17.970;2023-09-19T11:56:49;21.00;99.90
71142;DHT22;58808;59.366;17.970;2023-09-19T11:59:22;21.00;99.90
71142;DHT22;58808;59.366;17.970;2023-09-19T12:02:05;20.90;99.90
71142;DHT22;58808;59.366;17.970;2023-09-19T12:07:07;20.80;99.90
71142;DHT22;58808;59.366;17.970;2023-09-19T12:09:48;20.50;99.90
71142;DHT22;58808;59.366;17.970;2023-09-19T12:12:25;20.20;99.90
71142;DHT22;58808;59.366;17.970;2023-09-19T12:14:54;20.00;99.90
71142;DHT22;58808;59.366;17.970;2023-09-19T12:17:21;19.80;99.90
71142;DHT22;58808;59.366;17.970;2023-09-19T12:19:55;19.80;99.90
71142;DHT22;58808;59.366;17.970;2023-09-19T12:22:20;19.80;99.90
71142;DHT22;58808;59.366;17.970;2023-09-19T12:24:46;19.90;99.90
71142;DHT22;58808;59.366;17.970;2023-09-19T12:27:12;20.10;99.90
71142;DHT22;58808;59.366;17.970;2023-09-19T12:32:08;20.50;99.90
71142;DHT22;58808;59.366;17.970;2023-09-19T12:34:34;20.60;99.90
71142;DHT22;58808;59.366;17.970;2023-09-19T12:37:14;20.70;98.70
71142;DHT22;58808;59.366;17.970;2023-09-19T12:39:46;20.70;98.10
71142;DHT22;58808;59.366;17.970;2023-09-19T12:42:15;20.70;97.40
71142;DHT22;58808;59.366;17.970;2023-09-19T12:44:46;20.70;95.70
71142;DHT22;58808;59.366;17.970;2023-09-19T12:47:17;20.50;95.80
71142;DHT22;58808;59.366;17.970;2023-09-19T12:52:41;20.00;96.10
71142;DHT22;58808;59.366;17.970;2023-09-19T12:55:07;19.80;95.80
71142;DHT22;58808;59.366;17.970;2023-09-19T12:57:35;19.70;95.60
71142;DHT22;58808;59.366;17.970;2023-09-19T13:00:04;19.60;95.80
71142;DHT22;58808;59.366;17.970;2023-09-19T13:02:36;19.60;95.80
71142;DHT22;58808;59.366;17.970;2023-09-19T13:05:03;19.50;95.60
71142;DHT22;58808;59.366;17.970;2023-09-19T13:07:45;19.40;95.40
71142;DHT22;58808;59.366;17.970;2023-09-19T13:10:15;19.40;95.00
71142;DHT22;58808;59.366;17.970;2023-09-19T13:12:43;19.30;94.90
71142;DHT22;58808;59.366;17.970;2023-09-19T13:15:13;19.20;94.60
71142;DHT22;58808;59.366;17.970;2023-09-19T13:17:46;19.20;94.90
71142;DHT22;58808;59.366;17.970;2023-09-19T13:20:25;19.20;94.90
71142;DHT22;58808;59.366;17.970;2023-09-19T13:22:54;19.20;94.70
71142;DHT22;58808;59.366;17.970;2023-09-19T13:25:25;19.10;94.70
71142;DHT22;58808;59.366;17.970;2023-09-19T13:27:55;19.10;94.50
71142;DHT22;58808;59.366;17.970;2023-09-19T13:30:23;19.00;94.00
71142;DHT22;58808;59.366;17.970;2023-09-19T13:32:51;19.00;93.10
71142;DHT22;58808;59.366;17.970;2023-09-19T13:35:18;18.90;92.00
71142;DHT22;58808;59.366;17.970;2023-09-19T13:37:44;18.90;91.30
71142;DHT22;58808;59.366;17.970;2023-09-19T13:40:15;18.80;91.20
71142;DHT22;58808;59.366;17.970;2023-09-19T13:42:41;18.80;90.90
71142;DHT22;58808;59.366;17.970;2023-09-19T13:45:08;18.80;91.20
71142;DHT22;58808;59.366;17.970;2023-09-19T13:47:37;18.70;91.50
71142;DHT22;58808;59.366;17.970;2023-09-19T13:50:04;18.70;91.30
71142;DHT22;58808;59.366;17.970;2023-09-19T13:52:31;18.70;91.60
71142;DHT22;58808;59.366;17.970;2023-09-19T13:54:57;18.60;92.20
71142;DHT22;58808;59.366;17.970;2023-09-19T13:57:26;18.50;91.50
71142;DHT22;58808;59.366;17.970;2023-09-19T13:59:52;18.20;89.00
71142;DHT22;58808;59.366;17.970;2023-09-19T14:02:22;17.90;90.30
71142;DHT22;58808;59.366;17.970;2023-09-19T14:04:51;17.70;90.60
71142;DHT22;58808;59.366;17.970;2023-09-19T14:07:17;17.50;92.60
71142;DHT22;58808;59.366;17.970;2023-09-19T14:09:45;17.40;95.90
71142;DHT22;58808;59.366;17.970;2023-09-19T14:12:11;17.20;97.10
71142;DHT22;58808;59.366;17.970;2023-09-19T14:14:37;17.10;96.60
71142;DHT22;58808;59.366;17.970;2023-09-19T14:17:06;17.00;96.30
71142;DHT22;58808;59.366;17.970;2023-09-19T14:19:33;17.00;94.90
71142;DHT22;58808;59.366;17.970;2023-09-19T14:21:58;17.00;94.50
71142;DHT22;58808;59.366;17.970;2023-09-19T14:24:25;17.00;94.00
71142;DHT22;58808;59.366;17.970;2023-09-19T14:26:51;17.00;93.50
71142;DHT22;58808;59.366;17.970;2023-09-19T14:29:17;17.00;92.10
71142;DHT22;58808;59.366;17.970;2023-09-19T14:31:43;16.90;91.70
71142;DHT22;58808;59.366;17.970;2023-09-19T14:34:09;17.00;91.80
71142;DHT22;58808;59.366;17.970;2023-09-19T14:36:36;16.90;91.40
71142;DHT22;58808;59.366;17.970;2023-09-19T14:39:02;16.90;90.70
71142;DHT22;58808;59.366;17.970;2023-09-19T14:41:28;16.90;90.50
71142;DHT22;58808;59.366;17.970;2023-09-19T14:43:54;16.90;90.50
71142;DHT22;58808;59.366;17.970;2023-09-19T14:46:23;16.90;90.40
71142;DHT22;58808;59.366;17.970;2023-09-19T14:48:52;16.90;89.70
71142;DHT22;58808;59.366;17.970;2023-09-19T14:51:18;16.80;90.20
71142;DHT22;58808;59.366;17.970;2023-09-19T14:53:45;16.80;89.80
71142;DHT22;58808;59.366;17.970;2023-09-19T14:56:11;16.80;89.50
71142;DHT22;58808;59.366;17.970;2023-09-19T14:58:38;16.90;89.70
71142;DHT22;58808;59.366;17.970;2023-09-19T15:01:06;17.00;88.30
71142;DHT22;58808;59.366;17.970;2023-09-19T15:03:33;17.20;87.90
71142;DHT22;58808;59.366;17.970;2023-09-19T15:06:04;17.20;87.30
71142;DHT22;58808;59.366;17.970;2023-09-19T15:08:35;17.20;87.70
71142;DHT22;58808;59.366;17.970;2023-09-19T15:11:09;17.10;87.30
71142;DHT22;58808;59.366;17.970;2023-09-19T15:13:36;17.00;87.70
71142;DHT22;58808;59.366;17.970;2023-09-19T15:16:07;16.90;88.10
71142;DHT22;58808;59.366;17.970;2023-09-19T15:18:38;16.90;88.70
71142;DHT22;58808;59.366;17.970;2023-09-19T15:21:05;16.90;89.00
71142;DHT22;58808;59.366;17.970;2023-09-19T15:23:31;16.80;91.80
71142;DHT22;58808;59.366;17.970;2023-09-19T15:26:03;16.00;98.30
71142;DHT22;58808;59.366;17.970;2023-09-19T15:28:30;15.30;99.40
71142;DHT22;58808;59.366;17.970;2023-09-19T15:31:05;15.10;99.90
71142;DHT22;58808;59.366;17.970;2023-09-19T15:33:31;15.10;99.90
71142;DHT22;58808;59.366;17.970;2023-09-19T15:36:08;15.10;99.90
71142;DHT22;58808;59.366;17.970;2023-09-19T15:39:01;15.10;99.90
71142;DHT22;58808;59.366;17.970;2023-09-19T15:41:31;15.20;99.90
71142;DHT22;58808;59.366;17.970;2023-09-19T15:43:59;15.30;99.90
71142;DHT22;58808;59.366;17.970;2023-09-19T15:46:27;15.30;99.90
71142;DHT22;58808;59.366;17.970;2023-09-19T15:48:53;15.30;99.90
71142;DHT22;58808;59.366;17.970;2023-09-19T15:51:19;15.30;99.90
71142;DHT22;58808;59.366;17.970;2023-09-19T15:53:49;15.30;99.90
71142;DHT22;58808;59.366;17.970;2023-09-19T15:56:16;15.30;99.90
71142;DHT22;58808;59.366;17.970;2023-09-19T15:58:46;15.20;99.90
71142;DHT22;58808;59.366;17.970;2023-09-19T16:01:12;15.20;99.90
71142;DHT22;58808;59.366;17.970;2023-09-19T16:03:40;15.20;99.90
71142;DHT22;58808;59.366;17.970;2023-09-19T16:06:13;15.20;99.90
71142;DHT22;58808;59.366;17.970;2023-09-19T16:08:43;15.10;99.90
71142;DHT22;58808;59.366;17.970;2023-09-19T16:11:10;15.10;99.90
71142;DHT22;58808;59.366;17.970;2023-09-19T16:13:37;15.10;99.90
71142;DHT22;58808;59.366;17.970;2023-09-19T16:16:03;15.10;99.90
71142;DHT22;58808;59.366;17.970;2023-09-19T16:18:30;15.10;99.90
71142;DHT22;58808;59.366;17.970;2023-09-19T16:21:06;15.10;99.90
71142;DHT22;58808;59.366;17.970;2023-09-19T16:23:33;15.10;99.90
71142;DHT22;58808;59.366;17.970;2023-09-19T16:26:08;15.10;99.90
71142;DHT22;58808;59.366;17.970;2023-09-19T16:28:39;15.00;99.90
71142;DHT22;58808;59.366;17.970;2023-09-19T16:31:06;15.00;99.80